createdAt,value
2022-10-05T00:01:35.450Z,10.33
2022-10-05T00:04:16.470Z,10.27
2022-10-05T00:06:45.913Z,10.30
2022-10-05T00:09:17.079Z,10.30
2022-10-05T00:11:44.990Z,10.36
2022-10-05T00:14:23.814Z,10.33
2022-10-05T00:16:51.036Z,10.31
2022-10-05T00:19:33.212Z,10.28
2022-10-05T00:22:09.811Z,10.23
2022-10-05T00:24:36.600Z,10.32
2022-10-05T00:27:21.894Z,10.25
2022-10-05T00:29:50.148Z,10.32
2022-10-05T00:32:16.728Z,10.31
2022-10-05T00:34:45.176Z,10.37
2022-10-05T00:37:13.801Z,10.25
2022-10-05T00:39:40.821Z,10.21
2022-10-05T00:42:31.587Z,10.08
2022-10-05T00:45:15.933Z,10.02
2022-10-05T00:47:57.518Z,10.03
2022-10-05T00:50:40.682Z,10.11
2022-10-05T00:53:33.239Z,10.19
2022-10-05T00:56:05.972Z,10.22
2022-10-05T00:58:38.746Z,10.22
2022-10-05T01:01:12.806Z,10.20
2022-10-05T01:07:43.372Z,10.11
2022-10-05T01:10:21.762Z,10.05
2022-10-05T01:13:10.118Z,10.01
2022-10-05T01:15:45.117Z,9.97
2022-10-05T01:18:39.581Z,9.95
2022-10-05T01:21:11.679Z,9.89
2022-10-05T01:23:56.662Z,9.79
2022-10-05T01:26:48.326Z,9.73
2022-10-05T01:29:34.025Z,9.75
2022-10-05T01:32:25.963Z,9.75
2022-10-05T01:35:14.647Z,9.75
2022-10-05T01:37:44.357Z,9.69
2022-10-05T01:40:34.492Z,9.68
2022-10-05T01:43:12.419Z,9.63
2022-10-05T01:45:57.729Z,9.56
2022-10-05T01:48:27.227Z,9.50
2022-10-05T01:51:22.357Z,9.60
2022-10-05T01:54:06.918Z,9.65
2022-10-05T01:57:00.679Z,9.56
2022-10-05T01:59:29.878Z,9.59
2022-10-05T02:02:08.004Z,9.61
2022-10-05T02:05:03.458Z,9.58
2022-10-05T02:07:56.226Z,9.54
2022-10-05T02:10:37.436Z,9.45
2022-10-05T02:13:14.474Z,9.37
2022-10-05T02:15:46.622Z,9.29
2022-10-05T02:18:23.831Z,9.25
2022-10-05T02:20:52.966Z,9.22
2022-10-05T02:23:25.521Z,9.11
2022-10-05T02:25:55.442Z,9.15
2022-10-05T02:28:36.460Z,9.18
2022-10-05T02:31:12.725Z,9.22
2022-10-05T02:33:39.452Z,9.22
2022-10-05T02:36:33.377Z,9.12
2022-10-05T02:39:20.482Z,9.16
2022-10-05T02:42:31.996Z,9.22
2022-10-05T02:45:19.303Z,9.12
2022-10-05T02:48:02.678Z,9.18
2022-10-05T02:50:51.273Z,9.20
2022-10-05T02:53:24.911Z,9.13
2022-10-05T02:56:12.758Z,9.12
2022-10-05T02:58:53.476Z,9.13
2022-10-05T03:01:37.901Z,9.06
2022-10-05T03:04:26.000Z,9.05
2022-10-05T03:07:27.844Z,8.94
2022-10-05T03:10:02.162Z,8.91
2022-10-05T03:12:34.859Z,8.92
2022-10-05T03:15:10.612Z,8.90
2022-10-05T03:17:57.554Z,8.86
2022-10-05T03:20:43.336Z,8.86
2022-10-05T03:23:35.990Z,8.90
2022-10-05T03:26:12.384Z,8.80
2022-10-05T03:29:00.472Z,8.77
2022-10-05T03:31:53.081Z,8.93
2022-10-05T03:35:00.326Z,9.03
2022-10-05T03:37:44.975Z,9.08
2022-10-05T03:40:35.062Z,9.13
2022-10-05T03:43:48.438Z,9.14
2022-10-05T03:46:39.138Z,9.07
2022-10-05T03:49:32.004Z,9.08
2022-10-05T03:52:09.960Z,9.04
2022-10-05T03:54:42.290Z,9.06
2022-10-05T03:57:15.886Z,8.97
2022-10-05T03:59:50.601Z,8.90
2022-10-05T04:02:25.253Z,8.84
2022-10-05T04:05:09.167Z,8.86
2022-10-05T04:07:52.325Z,8.85
2022-10-05T04:10:30.826Z,8.81
2022-10-05T04:13:13.249Z,8.91
2022-10-05T04:15:50.461Z,8.86
2022-10-05T04:18:34.388Z,9.02
2022-10-05T04:21:32.482Z,8.95
2022-10-05T04:24:10.378Z,9.02
2022-10-05T04:26:52.653Z,8.89
2022-10-05T04:29:41.219Z,8.99
2022-10-05T04:32:37.720Z,8.96
2022-10-05T04:35:10.302Z,8.95
2022-10-05T04:38:14.175Z,8.83
2022-10-05T04:41:29.011Z,8.78
2022-10-05T04:44:43.947Z,8.72
2022-10-05T04:47:28.722Z,8.74
2022-10-05T04:49:58.163Z,8.76
2022-10-05T04:52:31.904Z,8.72
2022-10-05T04:55:16.424Z,8.69
2022-10-05T04:58:10.909Z,8.60
2022-10-05T05:00:55.851Z,8.55
2022-10-05T05:03:39.270Z,8.53
2022-10-05T05:06:18.486Z,8.48
2022-10-05T05:09:19.044Z,8.48
2022-10-05T05:12:03.797Z,8.44
2022-10-05T05:14:49.065Z,8.43
2022-10-05T05:17:39.961Z,8.33
2022-10-05T05:20:09.777Z,8.28
2022-10-05T05:23:02.526Z,8.27
2022-10-05T05:26:01.712Z,8.21
2022-10-05T05:28:40.008Z,8.15
2022-10-05T05:31:41.810Z,8.07
2022-10-05T05:34:23.864Z,8.10
2022-10-05T05:37:18.036Z,8.11
2022-10-05T05:40:03.206Z,8.03
2022-10-05T05:42:58.900Z,8.00
2022-10-05T05:45:42.122Z,7.98
2022-10-05T05:48:38.853Z,8.11
2022-10-05T05:51:16.329Z,8.17
2022-10-05T05:53:46.994Z,8.28
2022-10-05T05:56:32.541Z,8.33
2022-10-05T05:59:12.808Z,8.28
2022-10-05T06:01:45.134Z,8.32
2022-10-05T06:04:35.871Z,8.43
2022-10-05T06:07:05.071Z,8.49
2022-10-05T06:09:49.854Z,8.55
2022-10-05T06:12:37.598Z,8.51
2022-10-05T06:15:24.966Z,8.58
2022-10-05T06:17:56.441Z,8.62
2022-10-05T06:20:51.994Z,8.57
2022-10-05T06:23:25.277Z,8.64
2022-10-05T06:26:27.378Z,8.68
2022-10-05T06:29:02.501Z,8.76
2022-10-05T06:32:04.282Z,8.86
2022-10-05T06:34:44.412Z,9.00
2022-10-05T06:37:44.519Z,9.13
2022-10-05T06:40:49.416Z,9.34
2022-10-05T06:43:30.804Z,9.49
2022-10-05T06:46:07.346Z,9.78
2022-10-05T06:49:03.193Z,10.11
2022-10-05T06:51:51.431Z,10.42
2022-10-05T06:54:50.937Z,10.82
2022-10-05T06:57:55.004Z,11.09
2022-10-05T07:00:27.308Z,11.26
2022-10-05T07:03:17.618Z,11.37
2022-10-05T07:06:12.146Z,11.52
2022-10-05T07:08:47.837Z,11.67
2022-10-05T07:11:40.048Z,11.76
2022-10-05T07:14:21.549Z,11.87
2022-10-05T07:16:51.295Z,11.93
2022-10-05T07:19:46.140Z,12.06
2022-10-05T07:22:37.939Z,12.18
2022-10-05T07:25:18.030Z,12.25
2022-10-05T07:28:12.897Z,12.44
2022-10-05T07:31:16.578Z,12.59
2022-10-05T07:33:53.252Z,12.67
2022-10-05T07:36:58.557Z,12.78
2022-10-05T07:40:06.546Z,12.84
2022-10-05T07:42:51.499Z,12.82
2022-10-05T07:45:30.707Z,12.94
2022-10-05T07:48:12.258Z,13.04
2022-10-05T07:50:52.540Z,13.06
2022-10-05T07:53:26.175Z,13.11
2022-10-05T07:55:55.959Z,13.22
2022-10-05T07:58:29.492Z,13.34
2022-10-05T08:01:02.269Z,13.40
2022-10-05T08:04:00.333Z,13.44
2022-10-05T08:06:45.625Z,13.48
2022-10-05T08:09:55.634Z,13.54
2022-10-05T08:12:27.895Z,13.55
2022-10-05T08:15:20.691Z,13.65
2022-10-05T08:17:54.273Z,13.58
2022-10-05T08:20:46.527Z,13.84
2022-10-05T08:23:21.149Z,13.95
2022-10-05T08:25:55.477Z,13.91
2022-10-05T08:28:35.654Z,13.97
2022-10-05T08:31:09.223Z,14.01
2022-10-05T08:34:13.533Z,14.07
2022-10-05T08:36:40.020Z,14.17
2022-10-05T08:39:16.168Z,14.24
2022-10-05T08:42:01.500Z,14.25
2022-10-05T08:44:47.796Z,14.39
2022-10-05T08:47:40.579Z,14.46
2022-10-05T08:50:45.592Z,14.52
2022-10-05T08:53:20.072Z,14.57
2022-10-05T08:55:58.548Z,14.63
2022-10-05T08:58:53.745Z,14.73
2022-10-05T09:01:56.114Z,14.83
2022-10-05T09:04:34.298Z,14.96
2022-10-05T09:07:08.630Z,15.00
2022-10-05T09:09:43.390Z,15.09
2022-10-05T09:12:48.979Z,15.10
2022-10-05T09:15:26.265Z,15.12
2022-10-05T09:18:12.314Z,15.24
2022-10-05T09:20:55.156Z,15.28
2022-10-05T09:23:40.331Z,15.26
2022-10-05T09:26:28.665Z,15.27
2022-10-05T09:28:57.851Z,15.22
2022-10-05T09:31:33.489Z,15.21
2022-10-05T09:34:26.183Z,15.31
2022-10-05T09:37:19.847Z,15.38
2022-10-05T09:40:17.050Z,15.56
2022-10-05T09:43:18.490Z,15.59
2022-10-05T09:46:22.575Z,15.67
2022-10-05T09:49:13.670Z,15.74
2022-10-05T09:51:46.913Z,15.83
2022-10-05T09:54:28.885Z,15.73
2022-10-05T09:57:23.070Z,15.72
2022-10-05T10:00:15.747Z,15.78
2022-10-05T10:03:04.981Z,15.93
2022-10-05T10:05:34.339Z,15.97
2022-10-05T10:08:12.064Z,16.07
2022-10-05T10:11:05.042Z,15.99
2022-10-05T10:13:53.554Z,16.08
2022-10-05T10:16:32.590Z,16.12
2022-10-05T10:19:36.680Z,16.19
2022-10-05T10:22:16.298Z,16.34
2022-10-05T10:25:01.070Z,16.38
2022-10-05T10:28:14.710Z,16.43
2022-10-05T10:30:56.300Z,16.44
2022-10-05T10:33:51.198Z,16.42
2022-10-05T10:36:34.009Z,16.54
2022-10-05T10:39:34.700Z,16.65
2022-10-05T10:42:16.690Z,16.66
2022-10-05T10:45:08.813Z,16.71
2022-10-05T10:48:01.147Z,16.77
2022-10-05T10:51:12.989Z,16.76
2022-10-05T10:54:03.886Z,16.79
2022-10-05T10:56:42.319Z,16.87
2022-10-05T10:59:53.788Z,17.00
2022-10-05T11:02:50.012Z,17.01
2022-10-05T11:06:10.014Z,17.08
2022-10-05T11:08:58.072Z,17.08
2022-10-05T11:11:51.309Z,17.20
2022-10-05T11:14:39.969Z,17.27
2022-10-05T11:17:31.713Z,17.29
2022-10-05T11:20:16.450Z,17.40
2022-10-05T11:22:52.019Z,17.47
2022-10-05T11:25:49.049Z,17.55
2022-10-05T11:28:27.442Z,17.61
2022-10-05T11:31:21.725Z,17.61
2022-10-05T11:34:24.055Z,17.70
2022-10-05T11:36:59.632Z,17.84
2022-10-05T11:39:30.783Z,17.88
2022-10-05T11:42:00.430Z,17.97
2022-10-05T11:48:41.838Z,18.07
2022-10-05T11:51:30.710Z,18.23
2022-10-05T11:54:17.536Z,18.30
2022-10-05T11:57:09.403Z,18.23
2022-10-05T11:59:49.184Z,18.26
2022-10-05T12:02:34.458Z,18.32
2022-10-05T12:05:40.131Z,18.40
2022-10-05T12:08:23.414Z,18.38
2022-10-05T12:11:07.969Z,18.40
2022-10-05T12:13:56.222Z,18.50
2022-10-05T12:16:36.460Z,18.52
2022-10-05T12:19:36.511Z,18.62
2022-10-05T12:22:18.130Z,18.76
2022-10-05T12:25:12.416Z,18.80
2022-10-05T12:27:42.773Z,19.01
2022-10-05T12:30:14.903Z,19.01
2022-10-05T12:32:47.705Z,19.09
2022-10-05T12:35:46.760Z,19.14
2022-10-05T12:38:16.122Z,19.21
2022-10-05T12:40:56.877Z,19.30
2022-10-05T12:43:37.201Z,19.34
2022-10-05T12:46:24.010Z,19.46
2022-10-05T12:49:21.201Z,19.55
2022-10-05T12:51:59.999Z,19.60
2022-10-05T12:54:42.364Z,19.55
2022-10-05T12:57:08.957Z,19.54
2022-10-05T12:59:59.607Z,19.55
2022-10-05T13:02:46.714Z,19.63
2022-10-05T13:05:25.338Z,19.67
2022-10-05T13:07:51.972Z,19.80
2022-10-05T13:11:01.882Z,19.90
2022-10-05T13:13:56.390Z,19.88
2022-10-05T13:16:25.938Z,19.87
2022-10-05T13:19:19.538Z,20.03
2022-10-05T13:21:55.630Z,19.97
2022-10-05T13:24:31.368Z,20.15
2022-10-05T13:27:14.847Z,20.20
2022-10-05T13:30:02.828Z,20.18
2022-10-05T13:32:36.660Z,20.25
2022-10-05T13:35:35.511Z,20.27
2022-10-05T13:38:38.509Z,20.33
2022-10-05T13:41:24.694Z,20.37
2022-10-05T13:44:12.331Z,20.46
2022-10-05T13:47:17.803Z,20.46
2022-10-05T13:49:57.162Z,20.47
2022-10-05T13:52:46.969Z,20.49
2022-10-05T13:55:33.273Z,20.56
2022-10-05T13:58:13.226Z,20.63
2022-10-05T14:01:08.823Z,20.66
2022-10-05T14:03:38.086Z,20.71
2022-10-05T14:06:14.116Z,20.77
2022-10-05T14:09:03.196Z,20.81
2022-10-05T14:11:35.457Z,20.67
2022-10-05T14:14:10.743Z,20.76
2022-10-05T14:16:56.271Z,20.77
2022-10-05T14:19:28.184Z,20.79
2022-10-05T14:22:24.613Z,21.01
2022-10-05T14:24:55.134Z,21.09
2022-10-05T14:27:23.871Z,21.04
2022-10-05T14:30:17.181Z,21.04
2022-10-05T14:32:51.439Z,21.21
2022-10-05T14:35:22.108Z,21.14
2022-10-05T14:38:01.613Z,21.15
2022-10-05T14:40:34.809Z,21.15
2022-10-05T14:43:30.936Z,21.30
2022-10-05T14:46:01.656Z,21.33
2022-10-05T14:48:38.534Z,21.43
2022-10-05T14:51:11.270Z,21.42
2022-10-05T14:53:39.430Z,21.54
2022-10-05T14:56:25.034Z,21.64
2022-10-05T14:58:57.681Z,21.72
2022-10-05T15:01:32.925Z,21.97
2022-10-05T15:04:21.204Z,22.20
2022-10-05T15:07:04.283Z,23.01
2022-10-05T15:09:40.194Z,23.54
2022-10-05T15:12:08.415Z,24.12
2022-10-05T15:14:42.979Z,24.94
2022-10-05T15:17:20.342Z,25.66
2022-10-05T15:20:28.492Z,26.75
2022-10-05T15:23:30.702Z,28.12
2022-10-05T15:26:07.760Z,28.39
2022-10-05T15:28:48.483Z,28.90
2022-10-05T15:31:51.820Z,29.14
2022-10-05T15:34:49.246Z,28.65
2022-10-05T15:37:22.032Z,29.55
2022-10-05T15:40:02.071Z,30.05
2022-10-05T15:42:41.207Z,30.71
2022-10-05T15:45:32.750Z,30.26
2022-10-05T15:48:19.883Z,31.33
2022-10-05T15:50:50.725Z,31.46
2022-10-05T15:53:24.070Z,31.49
2022-10-05T15:55:54.735Z,30.99
2022-10-05T15:58:31.395Z,31.05
2022-10-05T16:01:24.700Z,30.91
2022-10-05T16:04:01.590Z,30.44
2022-10-05T16:06:52.972Z,30.28
2022-10-05T16:09:46.863Z,28.36
2022-10-05T16:12:22.203Z,26.14
2022-10-05T16:14:59.812Z,24.15
2022-10-05T16:17:35.568Z,22.83
2022-10-05T16:20:20.774Z,21.87
2022-10-05T16:23:25.225Z,20.90
2022-10-05T16:26:14.669Z,20.13
2022-10-05T16:28:56.361Z,19.63
2022-10-05T16:31:37.488Z,19.31
2022-10-05T16:34:41.245Z,18.94
2022-10-05T16:37:58.439Z,18.52
2022-10-05T16:40:50.989Z,18.27
2022-10-05T16:43:28.983Z,17.99
2022-10-05T16:46:12.740Z,17.66
2022-10-05T16:48:48.334Z,17.45
2022-10-05T16:51:21.462Z,17.24
2022-10-05T16:54:06.898Z,16.97
2022-10-05T16:56:43.576Z,16.93
2022-10-05T16:59:28.467Z,16.79
2022-10-05T17:02:07.343Z,16.56
2022-10-05T17:04:44.823Z,16.43
2022-10-05T17:07:37.699Z,16.38
2022-10-05T17:10:13.023Z,16.24
2022-10-05T17:12:45.680Z,16.14
2022-10-05T17:15:15.210Z,15.94
2022-10-05T17:18:07.033Z,15.81
2022-10-05T17:20:42.617Z,15.68
2022-10-05T17:23:37.731Z,15.48
2022-10-05T17:26:33.680Z,15.32
2022-10-05T17:29:09.242Z,15.15
2022-10-05T17:32:06.877Z,15.04
2022-10-05T17:34:36.498Z,14.76
2022-10-05T17:37:37.967Z,14.83
2022-10-05T17:40:33.776Z,14.70
2022-10-05T17:43:05.518Z,14.63
2022-10-05T17:45:32.047Z,14.54
2022-10-05T17:48:04.358Z,14.47
2022-10-05T17:51:07.396Z,14.36
2022-10-05T17:53:52.796Z,14.35
2022-10-05T17:56:23.192Z,14.25
2022-10-05T17:58:55.714Z,14.23
2022-10-05T18:01:36.064Z,14.35
2022-10-05T18:04:11.877Z,14.66
2022-10-05T18:06:39.221Z,14.72
2022-10-05T18:09:17.239Z,14.65
2022-10-05T18:11:49.250Z,14.56
2022-10-05T18:14:20.047Z,14.63
2022-10-05T18:17:04.698Z,14.59
2022-10-05T18:19:32.671Z,14.47
2022-10-05T18:22:03.574Z,14.46
2022-10-05T18:24:39.003Z,14.65
2022-10-05T18:27:05.588Z,14.63
2022-10-05T18:30:13.369Z,14.45
2022-10-05T18:32:51.324Z,14.30
2022-10-05T18:35:33.169Z,14.12
2022-10-05T18:38:22.513Z,13.99
2022-10-05T18:41:01.913Z,13.86
2022-10-05T18:43:48.000Z,13.79
2022-10-05T18:46:42.563Z,13.79
2022-10-05T18:49:36.697Z,13.79
2022-10-05T18:52:20.611Z,13.74
2022-10-05T18:55:02.633Z,13.68
2022-10-05T18:57:56.904Z,13.57
2022-10-05T19:00:24.851Z,13.46
2022-10-05T19:02:57.861Z,13.40
2022-10-05T19:05:48.918Z,13.39
2022-10-05T19:08:32.102Z,13.35
2022-10-05T19:11:23.061Z,13.27
2022-10-05T19:14:09.394Z,13.22
2022-10-05T19:16:50.849Z,13.15
2022-10-05T19:19:32.368Z,13.04
2022-10-05T19:22:47.769Z,12.94
2022-10-05T19:25:37.832Z,12.93
2022-10-05T19:28:17.509Z,12.97
2022-10-05T19:31:03.579Z,12.96
2022-10-05T19:34:04.083Z,13.02
2022-10-05T19:36:49.588Z,13.06
2022-10-05T19:39:55.598Z,13.03
2022-10-05T19:42:40.715Z,12.99
2022-10-05T19:45:13.163Z,13.03
2022-10-05T19:47:56.809Z,13.00
2022-10-05T19:50:23.368Z,12.92
2022-10-05T19:52:57.284Z,12.85
2022-10-05T19:55:35.051Z,12.77
2022-10-05T19:58:01.862Z,12.72
2022-10-05T20:00:33.959Z,12.80
2022-10-05T20:03:17.565Z,12.77
2022-10-05T20:05:44.246Z,12.74
2022-10-05T20:08:18.942Z,12.79
2022-10-05T20:11:03.837Z,12.79
2022-10-05T20:13:33.535Z,12.76
2022-10-05T20:16:35.066Z,12.64
2022-10-05T20:19:44.058Z,12.51
2022-10-05T20:22:23.799Z,12.38
2022-10-05T20:24:53.142Z,12.29
2022-10-05T20:27:49.133Z,12.25
2022-10-05T20:30:18.674Z,12.24
2022-10-05T20:32:58.120Z,12.18
2022-10-05T20:35:27.890Z,12.09
2022-10-05T20:37:59.439Z,12.09
2022-10-05T20:40:30.214Z,12.06
2022-10-05T20:42:57.878Z,12.08
2022-10-05T20:45:24.620Z,12.13
2022-10-05T20:47:51.279Z,12.14
2022-10-05T20:50:18.393Z,12.07
2022-10-05T20:52:45.057Z,12.08
2022-10-05T20:55:12.587Z,12.12
2022-10-05T20:57:42.263Z,12.06
2022-10-05T21:00:10.377Z,11.98
2022-10-05T21:02:38.261Z,11.91
2022-10-05T21:05:05.610Z,11.90
2022-10-05T21:07:34.253Z,11.86
2022-10-05T21:10:02.374Z,11.83
2022-10-05T21:12:28.927Z,11.78
2022-10-05T21:14:55.517Z,11.75
2022-10-05T21:17:22.058Z,11.74
2022-10-05T21:19:48.611Z,11.74
2022-10-05T21:22:15.214Z,11.70
2022-10-05T21:24:41.886Z,11.74
2022-10-05T21:27:08.549Z,11.72
2022-10-05T21:29:36.530Z,11.65
2022-10-05T21:32:03.963Z,11.66
2022-10-05T21:34:30.530Z,11.63
2022-10-05T21:36:57.046Z,11.63
2022-10-05T21:39:24.903Z,11.59
2022-10-05T21:41:51.515Z,11.52
2022-10-05T21:44:18.332Z,11.47
2022-10-05T21:46:45.539Z,11.45
2022-10-05T21:49:15.048Z,11.45
2022-10-05T21:51:44.815Z,11.44
2022-10-05T21:54:16.877Z,11.41
2022-10-05T21:56:48.397Z,11.40
2022-10-05T21:59:16.780Z,11.39
2022-10-05T22:01:43.335Z,11.32
2022-10-05T22:04:09.954Z,11.31
2022-10-05T22:06:36.907Z,11.33
2022-10-05T22:09:05.090Z,11.30
2022-10-05T22:11:33.166Z,11.25
2022-10-05T22:14:02.807Z,11.25
2022-10-05T22:16:36.692Z,11.23
2022-10-05T22:19:06.149Z,11.23
2022-10-05T22:21:38.044Z,11.23
2022-10-05T22:24:05.116Z,11.23
2022-10-05T22:26:31.913Z,11.16
2022-10-05T22:28:58.903Z,11.16
2022-10-05T22:31:25.555Z,11.09
2022-10-05T22:33:52.215Z,11.07
2022-10-05T22:36:19.920Z,11.01
2022-10-05T22:38:49.377Z,11.05
2022-10-05T22:41:18.410Z,11.01
2022-10-05T22:43:48.814Z,11.05
2022-10-05T22:46:16.034Z,11.02
2022-10-05T22:48:43.230Z,10.98
2022-10-05T22:51:10.540Z,10.94
2022-10-05T22:53:37.834Z,11.02
2022-10-05T22:56:06.513Z,10.93
2022-10-05T22:58:33.339Z,10.96
2022-10-05T23:01:02.334Z,10.97
2022-10-05T23:03:29.244Z,10.96
2022-10-05T23:05:57.830Z,10.97
2022-10-05T23:08:24.719Z,10.99
2022-10-05T23:10:52.556Z,10.95
2022-10-05T23:13:19.266Z,10.97
2022-10-05T23:15:45.805Z,10.93
2022-10-05T23:18:12.513Z,10.95
2022-10-05T23:20:40.428Z,10.95
2022-10-05T23:23:06.967Z,10.93
2022-10-05T23:25:33.606Z,10.88
2022-10-05T23:28:02.012Z,10.93
2022-10-05T23:30:28.573Z,10.88
2022-10-05T23:32:55.611Z,10.67
2022-10-05T23:35:22.764Z,10.84
2022-10-05T23:37:49.381Z,10.85
2022-10-05T23:40:16.048Z,10.86
2022-10-05T23:42:42.778Z,10.91
2022-10-05T23:45:11.073Z,10.91
2022-10-05T23:47:38.625Z,10.87
2022-10-05T23:50:07.246Z,10.85
2022-10-05T23:52:35.354Z,10.79
2022-10-05T23:55:05.631Z,10.71
2022-10-05T23:57:32.785Z,10.65
